地図

経路データ

SID SEASON NUMBER BASIN SUBBASIN NAME ISO_TIME NATURE LAT LON WMO_WIND WMO_PRES WMO_AGENCY TRACK_TYPE DIST2LAND LANDFALL IFLAG USA_AGENCY USA_ATCF_ID USA_LAT USA_LON USA_RECORD USA_STATUS USA_WIND USA_PRES USA_SSHS USA_R34_NE USA_R34_SE USA_R34_SW USA_R34_NW USA_R50_NE USA_R50_SE USA_R50_SW USA_R50_NW USA_R64_NE USA_R64_SE USA_R64_SW USA_R64_NW USA_POCI USA_ROCI USA_RMW USA_EYE TOKYO_LAT TOKYO_LON TOKYO_GRADE TOKYO_WIND TOKYO_PRES TOKYO_R50_DIR TOKYO_R50_LONG TOKYO_R50_SHORT TOKYO_R30_DIR TOKYO_R30_LONG TOKYO_R30_SHORT TOKYO_LAND CMA_LAT CMA_LON CMA_CAT CMA_WIND CMA_PRES HKO_LAT HKO_LON HKO_CAT HKO_WIND HKO_PRES NEWDELHI_LAT NEWDELHI_LON NEWDELHI_GRADE NEWDELHI_WIND NEWDELHI_PRES NEWDELHI_CI NEWDELHI_DP NEWDELHI_POCI REUNION_LAT REUNION_LON REUNION_TYPE REUNION_WIND REUNION_PRES REUNION_TNUM REUNION_CI REUNION_RMW REUNION_R34_NE REUNION_R34_SE REUNION_R34_SW REUNION_R34_NW REUNION_R50_NE REUNION_R50_SE REUNION_R50_SW REUNION_R50_NW REUNION_R64_NE REUNION_R64_SE REUNION_R64_SW REUNION_R64_NW BOM_LAT BOM_LON BOM_TYPE BOM_WIND BOM_PRES BOM_TNUM BOM_CI BOM_RMW BOM_R34_NE BOM_R34_SE BOM_R34_SW BOM_R34_NW BOM_R50_NE BOM_R50_SE BOM_R50_SW BOM_R50_NW BOM_R64_NE BOM_R64_SE BOM_R64_SW BOM_R64_NW BOM_ROCI BOM_POCI BOM_EYE BOM_POS_METHOD BOM_PRES_METHOD NADI_LAT NADI_LON NADI_CAT NADI_WIND NADI_PRES WELLINGTON_LAT WELLINGTON_LON WELLINGTON_WIND WELLINGTON_PRES DS824_LAT DS824_LON DS824_STAGE DS824_WIND DS824_PRES TD9636_LAT TD9636_LON TD9636_STAGE TD9636_WIND TD9636_PRES TD9635_LAT TD9635_LON TD9635_WIND TD9635_PRES TD9635_ROCI NEUMANN_LAT NEUMANN_LON NEUMANN_CLASS NEUMANN_WIND NEUMANN_PRES MLC_LAT MLC_LON MLC_CLASS MLC_WIND MLC_PRES USA_GUST BOM_GUST BOM_GUST_PER REUNION_GUST REUNION_GUST_PER USA_SEAHGT USA_SEARAD_NE USA_SEARAD_SE USA_SEARAD_SW USA_SEARAD_NW STORM_SPEED STORM_DIR
1925243N19116 1925 45 WP MM NOT_NAMED 1925-08-30 22:00:00 NR 18.7000 116.100 main 442 439 __________O___ -1 18.7000 116.100 2 6 231
1925243N19116 1925 45 WP MM NOT_NAMED 1925-08-31 00:00:00 NR 18.5759 115.938 main 446 446 __________P___ -1 18.5759 115.938 2 6 231
1925243N19116 1925 45 WP MM NOT_NAMED 1925-08-31 03:00:00 NR 18.3925 115.694 main 459 456 __________P___ -1 18.3925 115.694 2 6 232
1925243N19116 1925 45 WP MM NOT_NAMED 1925-08-31 06:00:00 NR 18.2162 115.445 main 472 470 __________P___ -1 18.2162 115.445 2 6 235
1925243N19116 1925 45 WP MM NOT_NAMED 1925-08-31 09:00:00 NR 18.0515 115.188 main 472 467 __________P___ -1 18.0515 115.188 2 6 237
1925243N19116 1925 45 WP MM NOT_NAMED 1925-08-31 10:00:00 NR 18.0000 115.100 main 467 452 __________O___ -1 18.0000 115.100 2 6 240
1925243N19116 1925 45 WP MM NOT_NAMED 1925-08-31 12:00:00 NR 17.9026 114.920 main 452 429 __________P___ -1 17.9026 114.920 2 6 242
1925243N19116 1925 45 WP MM NOT_NAMED 1925-08-31 15:00:00 NR 17.7691 114.643 main 429 416 __________P___ -1 17.7691 114.643 2 6 244
1925243N19116 1925 45 WP MM NOT_NAMED 1925-08-31 18:00:00 NR 17.6479 114.364 main 422 395 __________P___ -1 17.6479 114.364 2 6 246
1925243N19116 1925 45 WP MM NOT_NAMED 1925-08-31 21:00:00 NR 17.5358 114.090 main 402 393 __________P___ -1 17.5358 114.090 2 6 247
1925243N19116 1925 45 WP MM NOT_NAMED 1925-08-31 22:00:00 NR 17.5000 114.000 main 393 382 __________O___ -1 17.5000 114.000 2 5 246
1925243N19116 1925 45 WP MM NOT_NAMED 1925-09-01 00:00:00 NR 17.4249 113.830 main 382 368 __________P___ -1 17.4249 113.830 2 5 246
1925243N19116 1925 45 WP MM NOT_NAMED 1925-09-01 03:00:00 NR 17.3185 113.582 main 368 346 __________P___ -1 17.3185 113.582 2 5 247
1925243N19116 1925 45 WP MM NOT_NAMED 1925-09-01 06:00:00 NR 17.2198 113.336 main 346 334 __________P___ -1 17.2198 113.336 2 5 248
1925243N19116 1925 45 WP MM NOT_NAMED 1925-09-01 09:00:00 NR 17.1287 113.085 main 334 325 __________P___ -1 17.1287 113.085 2 5 250
1925243N19116 1925 45 WP MM NOT_NAMED 1925-09-01 10:00:00 NR 17.1000 113.000 main 325 315 __________O___ -1 17.1000 113.000 2 5 251
1925243N19116 1925 45 WP MM NOT_NAMED 1925-09-01 12:00:00 NR 17.0442 112.830 main 315 299 __________P___ -1 17.0442 112.830 2 5 252
1925243N19116 1925 45 WP MM NOT_NAMED 1925-09-01 15:00:00 NR 16.9668 112.570 main 299 284 __________P___ -1 16.9668 112.570 2 5 254
1925243N19116 1925 45 WP MM NOT_NAMED 1925-09-01 18:00:00 NR 16.8943 112.296 main 284 270 __________P___ -1 16.8943 112.296 2 6 255
1925243N19116 1925 45 WP MM NOT_NAMED 1925-09-01 21:00:00 NR 16.8237 112.003 main 271 265 __________P___ -1 16.8237 112.003 2 6 256
1925243N19116 1925 45 WP MM NOT_NAMED 1925-09-01 22:00:00 NR 16.8000 111.900 main 265 253 __________O___ -1 16.8000 111.900 2 6 256
1925243N19116 1925 45 WP MM NOT_NAMED 1925-09-02 00:00:00 NR 16.7448 111.681 main 262 234 __________P___ -1 16.7448 111.681 2 7 256
1925243N19116 1925 45 WP MM NOT_NAMED 1925-09-02 03:00:00 NR 16.6618 111.334 main 234 226 __________P___ -1 16.6618 111.334 2 7 257
1925243N19116 1925 45 WP MM NOT_NAMED 1925-09-02 06:00:00 NR 16.5842 110.975 main 226 212 __________P___ -1 16.5842 110.975 2 7 258
1925243N19116 1925 45 WP MM NOT_NAMED 1925-09-02 09:00:00 NR 16.5183 110.617 main 212 208 __________P___ -1 16.5183 110.617 2 7 260
1925243N19116 1925 45 WP MM NOT_NAMED 1925-09-02 10:00:00 NR 16.5000 110.500 main 208 200 __________O___ -1 16.5000 110.500 2 7 262
1925243N19116 1925 45 WP MM NOT_NAMED 1925-09-02 12:00:00 NR 16.4698 110.272 main 200 170 __________P___ -1 16.4698 110.272 2 6 263
1925243N19116 1925 45 WP MM NOT_NAMED 1925-09-02 15:00:00 NR 16.4380 109.940 main 170 144 __________P___ -1 16.4380 109.940 2 6 265
1925243N19116 1925 45 WP MM NOT_NAMED 1925-09-02 18:00:00 NR 16.4178 109.620 main 144 115 __________P___ -1 16.4178 109.620 2 6 267
1925243N19116 1925 45 WP MM NOT_NAMED 1925-09-02 21:00:00 NR 16.4040 109.304 main 115 106 __________P___ -1 16.4040 109.304 2 6 267
1925243N19116 1925 45 WP MM NOT_NAMED 1925-09-02 22:00:00 NR 16.4000 109.200 main 106 __________O___ -1 16.4000 109.200 2 6 268

デジタル台風データ・検索

IBTrACS Databaseについて

本データベースは、米国NOAAが公開する1842年以降の世界の熱帯低気圧のベストトラックデータアーカイブInternational Best Track Archive for Climate Stewardship (IBTrACS)を、ウェブで閲覧しやすい形式に変換したものです。

最終更新日:2021-12-03